Time;durP1;ratioP1;P1;durP2;ratioP2;P2;SDS_P1;SDS_P2;PMS_P1;PMS_P2;Temp;Humidity;BMP_temperature;BMP_pressure;BME280_temperature;BME280_humidity;BME280_pressure;Samples;Min_cycle;Max_cycle;Signal;HPM_P1;HPM_P2
2021/10/20 00:01:55;;;;;;;104.15;51.85;;;;;;;;;;5035685;28;20063;-89
2021/10/20 00:04:20;;;;;;;114.13;53.60;;;;;;;;;;5035761;28;20021;-90
2021/10/20 00:06:46;;;;;;;112.70;54.87;;;;;;;;;;5035375;28;20028;-89
2021/10/20 00:09:11;;;;;;;120.90;58.05;;;;;;;;;;5036050;28;20256;-90
2021/10/20 00:11:36;;;;;;;130.85;60.15;;;;;;;;;;5035781;28;20056;-90
2021/10/20 00:14:02;;;;;;;118.43;59.00;;;;;;;;;;5035688;28;20044;-89
2021/10/20 00:16:28;;;;;;;129.18;63.58;;;;;;;;;;5054837;28;20017;-90
2021/10/20 00:18:54;;;;;;;139.20;64.70;;;;;;;;;;5040711;28;20028;-90
2021/10/20 00:21:23;;;;;;;122.25;61.13;;;;;;;;;;5057060;28;20060;-89
2021/10/20 00:23:49;;;;;;;135.68;67.10;;;;;;;;;;5057243;28;20804;-90
2021/10/20 00:26:14;;;;;;;113.97;61.63;;;;;;;;;;5039199;28;20021;-90
2021/10/20 00:28:39;;;;;;;109.97;57.30;;;;;;;;;;5039251;28;20381;-90
2021/10/20 00:31:05;;;;;;;131.15;63.50;;;;;;;;;;5039699;28;20048;-90
2021/10/20 00:33:30;;;;;;;104.95;55.75;;;;;;;;;;5057250;28;20021;-90
2021/10/20 00:35:55;;;;;;;125.90;61.58;;;;;;;;;;5056527;28;20017;-90
2021/10/20 00:38:21;;;;;;;103.20;56.50;;;;;;;;;;5056640;28;20025;-89
2021/10/20 00:40:46;;;;;;;110.93;57.95;;;;;;;;;;5056631;28;20152;-90
2021/10/20 00:43:11;;;;;;;92.05;53.35;;;;;;;;;;5039039;28;20010;-90
2021/10/20 00:45:36;;;;;;;123.90;60.80;;;;;;;;;;5038974;28;20041;-90
2021/10/20 00:48:02;;;;;;;120.33;59.83;;;;;;;;;;5038918;28;20017;-90
2021/10/20 00:50:27;;;;;;;105.93;56.67;;;;;;;;;;5038839;28;20279;-89
2021/10/20 00:52:52;;;;;;;103.17;51.20;;;;;;;;;;5038503;28;20017;-90
2021/10/20 00:55:18;;;;;;;105.15;55.00;;;;;;;;;;5038318;28;20494;-90
2021/10/20 00:57:44;;;;;;;106.75;55.00;;;;;;;;;;5038566;28;20044;-90
2021/10/20 01:00:10;;;;;;;127.88;58.05;;;;;;;;;;5038672;28;20108;-90
2021/10/20 01:02:37;;;;;;;112.63;53.13;;;;;;;;;;5056163;28;20051;-90
2021/10/20 01:05:03;;;;;;;75.38;47.25;;;;;;;;;;5038714;28;20017;-90
2021/10/20 01:07:29;;;;;;;116.95;55.13;;;;;;;;;;5038606;28;20033;-90
2021/10/20 01:09:54;;;;;;;91.30;50.67;;;;;;;;;;5038486;28;20031;-90
2021/10/20 01:12:19;;;;;;;109.73;52.30;;;;;;;;;;5056313;28;20070;-90
2021/10/20 01:14:45;;;;;;;132.13;60.22;;;;;;;;;;5038421;28;20264;-90
2021/10/20 01:17:10;;;;;;;113.22;55.17;;;;;;;;;;5055849;28;20074;-90
2021/10/20 01:19:36;;;;;;;126.13;58.30;;;;;;;;;;5037995;28;20029;-90
2021/10/20 01:22:02;;;;;;;103.25;52.35;;;;;;;;;;5056095;28;20014;-90
2021/10/20 01:24:27;;;;;;;120.43;56.67;;;;;;;;;;5038207;28;20107;-90
2021/10/20 01:26:53;;;;;;;124.28;57.85;;;;;;;;;;5037441;28;20023;-90
2021/10/20 01:29:19;;;;;;;104.78;51.95;;;;;;;;;;5037898;28;20025;-90
2021/10/20 01:31:45;;;;;;;140.00;61.38;;;;;;;;;;5037648;28;20017;-90
2021/10/20 01:34:10;;;;;;;165.23;63.03;;;;;;;;;;5037852;28;20077;-90
2021/10/20 01:36:36;;;;;;;122.90;56.05;;;;;;;;;;5037414;28;20020;-89
2021/10/20 01:39:01;;;;;;;114.03;56.47;;;;;;;;;;5055430;28;20116;-90
2021/10/20 01:41:27;;;;;;;115.25;54.72;;;;;;;;;;5055643;28;20017;-90
2021/10/20 01:43:52;;;;;;;124.75;55.28;;;;;;;;;;5037756;28;20166;-90
2021/10/20 01:46:18;;;;;;;109.45;51.47;;;;;;;;;;5037482;28;20108;-90
2021/10/20 01:48:45;;;;;;;96.25;47.03;;;;;;;;;;5037616;28;20378;-90
2021/10/20 01:51:10;;;;;;;111.28;50.22;;;;;;;;;;5037271;28;20021;-90
2021/10/20 01:53:36;;;;;;;112.13;49.85;;;;;;;;;;5055468;28;20020;-90
2021/10/20 01:56:01;;;;;;;105.82;49.15;;;;;;;;;;5034106;28;20108;-90
2021/10/20 01:58:26;;;;;;;114.03;51.17;;;;;;;;;;5035437;28;20029;-90
2021/10/20 02:00:51;;;;;;;124.33;52.90;;;;;;;;;;5035196;28;20732;-89
2021/10/20 02:03:16;;;;;;;121.43;49.90;;;;;;;;;;5034133;28;20057;-90
2021/10/20 02:05:42;;;;;;;90.82;46.35;;;;;;;;;;5035089;28;20477;-90
2021/10/20 02:08:07;;;;;;;106.40;48.40;;;;;;;;;;5035257;28;20009;-90
2021/10/20 02:10:32;;;;;;;117.93;53.50;;;;;;;;;;5034556;28;20958;-90
2021/10/20 02:12:57;;;;;;;118.77;52.50;;;;;;;;;;5034607;28;20264;-89
2021/10/20 02:15:22;;;;;;;120.83;51.13;;;;;;;;;;5033681;28;20351;-90
2021/10/20 02:17:48;;;;;;;102.90;47.83;;;;;;;;;;5035048;28;20806;-90
2021/10/20 02:20:14;;;;;;;92.37;43.40;;;;;;;;;;5033577;28;20876;-90
2021/10/20 02:22:40;;;;;;;116.97;49.83;;;;;;;;;;5034941;28;20255;-90
2021/10/20 02:25:06;;;;;;;98.60;46.53;;;;;;;;;;5033718;28;20021;-91
2021/10/20 02:27:31;;;;;;;120.45;51.67;;;;;;;;;;5034833;28;20450;-90
2021/10/20 02:29:56;;;;;;;101.43;48.13;;;;;;;;;;5034877;28;20022;-90
2021/10/20 02:32:21;;;;;;;103.33;46.83;;;;;;;;;;5033373;28;20434;-90
2021/10/20 02:34:47;;;;;;;93.13;45.70;;;;;;;;;;5033388;28;20295;-90
2021/10/20 02:37:13;;;;;;;92.75;44.55;;;;;;;;;;5034536;28;20296;-90
2021/10/20 02:39:38;;;;;;;103.40;44.83;;;;;;;;;;5032286;28;20041;-90
2021/10/20 02:42:03;;;;;;;100.77;47.03;;;;;;;;;;5034938;28;20781;-90
2021/10/20 02:44:28;;;;;;;95.78;45.25;;;;;;;;;;5033159;28;20087;-89
2021/10/20 02:46:53;;;;;;;87.23;43.67;;;;;;;;;;5033327;28;20024;-89
2021/10/20 02:49:19;;;;;;;89.50;44.07;;;;;;;;;;5033191;28;20366;-89
2021/10/20 02:51:44;;;;;;;111.40;49.53;;;;;;;;;;5032582;28;20261;-89
2021/10/20 02:54:09;;;;;;;90.37;44.83;;;;;;;;;;5033111;28;20264;-89
2021/10/20 02:56:34;;;;;;;86.97;43.97;;;;;;;;;;5032494;28;20284;-89
2021/10/20 02:58:59;;;;;;;95.30;46.13;;;;;;;;;;5032793;28;20040;-89
2021/10/20 03:01:25;;;;;;;85.80;42.10;;;;;;;;;;5032910;28;20696;-89
2021/10/20 03:03:50;;;;;;;84.77;43.83;;;;;;;;;;5032823;28;20029;-89
2021/10/20 03:06:16;;;;;;;84.77;41.80;;;;;;;;;;5032733;28;20252;-89
2021/10/20 03:08:41;;;;;;;93.03;46.08;;;;;;;;;;5033742;28;20343;-89
2021/10/20 03:11:07;;;;;;;90.28;43.50;;;;;;;;;;5032773;28;20022;-89
2021/10/20 03:13:32;;;;;;;86.75;42.35;;;;;;;;;;5032550;28;20060;-89
2021/10/20 03:15:57;;;;;;;93.35;44.88;;;;;;;;;;5032450;28;20478;-89
2021/10/20 03:18:22;;;;;;;123.07;51.40;;;;;;;;;;5033179;28;20029;-90
2021/10/20 03:20:47;;;;;;;113.00;50.10;;;;;;;;;;5033986;28;20057;-89
2021/10/20 03:23:13;;;;;;;115.27;49.93;;;;;;;;;;5032446;28;20278;-89
2021/10/20 03:25:38;;;;;;;94.28;46.95;;;;;;;;;;5033814;28;20252;-89
2021/10/20 03:28:03;;;;;;;96.67;46.77;;;;;;;;;;5032623;28;20064;-90
2021/10/20 03:30:28;;;;;;;104.40;50.03;;;;;;;;;;5032635;28;20033;-89
2021/10/20 03:32:53;;;;;;;100.28;47.08;;;;;;;;;;5032814;28;20275;-89
2021/10/20 03:35:19;;;;;;;117.83;54.60;;;;;;;;;;5033867;28;20029;-89
2021/10/20 03:37:44;;;;;;;102.57;49.67;;;;;;;;;;5032114;28;20048;-90
2021/10/20 03:40:09;;;;;;;99.57;49.08;;;;;;;;;;5032419;28;20021;-89
2021/10/20 03:42:35;;;;;;;82.55;43.17;;;;;;;;;;5032455;28;20018;-89
2021/10/20 03:45:01;;;;;;;98.50;48.67;;;;;;;;;;5034474;28;20024;-90
2021/10/20 03:47:26;;;;;;;92.43;46.25;;;;;;;;;;5032598;28;20017;-90
2021/10/20 03:49:51;;;;;;;82.38;44.38;;;;;;;;;;5033978;28;20671;-90
2021/10/20 03:52:17;;;;;;;94.75;48.38;;;;;;;;;;5037057;28;20023;-90
2021/10/20 03:54:43;;;;;;;94.93;49.03;;;;;;;;;;5038174;28;20021;-89
2021/10/20 03:57:08;;;;;;;103.05;51.30;;;;;;;;;;5036595;28;20118;-90
2021/10/20 03:59:33;;;;;;;131.80;57.22;;;;;;;;;;5036197;28;20815;-89
2021/10/20 04:01:59;;;;;;;95.00;47.90;;;;;;;;;;5036111;28;20397;-89
2021/10/20 04:04:24;;;;;;;107.33;52.10;;;;;;;;;;5036208;28;20155;-89
2021/10/20 04:06:49;;;;;;;93.67;48.90;;;;;;;;;;5037435;28;20022;-90
2021/10/20 04:09:14;;;;;;;93.18;49.08;;;;;;;;;;5036371;28;20249;-89
2021/10/20 04:11:39;;;;;;;102.40;49.33;;;;;;;;;;5036352;28;20021;-90
2021/10/20 04:14:05;;;;;;;119.10;52.67;;;;;;;;;;5036191;28;21054;-89
2021/10/20 04:16:30;;;;;;;96.50;48.47;;;;;;;;;;5037877;28;20049;-89
2021/10/20 04:18:55;;;;;;;91.53;46.40;;;;;;;;;;5037687;28;20287;-89
2021/10/20 04:21:20;;;;;;;107.27;49.17;;;;;;;;;;5036209;28;20083;-89
2021/10/20 04:23:45;;;;;;;83.83;43.07;;;;;;;;;;5036378;28;20268;-89
2021/10/20 04:26:11;;;;;;;85.93;43.63;;;;;;;;;;5037158;28;20108;-89
2021/10/20 04:28:36;;;;;;;103.33;49.30;;;;;;;;;;5037504;28;20029;-89
2021/10/20 04:31:01;;;;;;;95.82;48.13;;;;;;;;;;5036397;28;20260;-89
2021/10/20 04:33:26;;;;;;;79.88;43.33;;;;;;;;;;5036401;28;20017;-89
2021/10/20 04:35:52;;;;;;;120.07;55.33;;;;;;;;;;5036889;28;20014;-89
2021/10/20 04:38:17;;;;;;;103.63;50.77;;;;;;;;;;5035770;28;20302;-89
2021/10/20 04:40:42;;;;;;;89.87;49.03;;;;;;;;;;5036965;28;20086;-89
2021/10/20 04:43:07;;;;;;;107.40;51.37;;;;;;;;;;5036901;28;20257;-89
2021/10/20 04:45:33;;;;;;;128.90;57.72;;;;;;;;;;5035443;28;20612;-89
2021/10/20 04:47:58;;;;;;;103.88;50.42;;;;;;;;;;5037177;28;20029;-89
2021/10/20 04:50:23;;;;;;;93.28;47.97;;;;;;;;;;5036704;28;20900;-89
2021/10/20 04:52:48;;;;;;;98.28;48.78;;;;;;;;;;5037058;28;20026;-89
2021/10/20 04:55:13;;;;;;;88.90;46.13;;;;;;;;;;5036646;28;20021;-89
2021/10/20 04:57:39;;;;;;;82.23;46.13;;;;;;;;;;5038680;28;20283;-89
2021/10/20 05:00:04;;;;;;;91.33;46.03;;;;;;;;;;5056627;28;20252;-89
2021/10/20 05:02:35;;;;;;;83.43;43.75;;;;;;;;;;5055786;28;20053;-89
2021/10/20 05:05:00;;;;;;;96.03;48.72;;;;;;;;;;5056410;28;20017;-89
2021/10/20 05:07:25;;;;;;;96.00;48.35;;;;;;;;;;5038891;28;20035;-89
2021/10/20 05:09:54;;;;;;;78.33;42.67;;;;;;;;;;5035766;28;20807;-89
2021/10/20 05:12:26;;;;;;;94.25;47.90;;;;;;;;;;5035265;28;20111;-89
2021/10/20 05:14:53;;;;;;;103.72;51.58;;;;;;;;;;5037708;28;20031;-89
2021/10/20 05:17:19;;;;;;;101.70;50.20;;;;;;;;;;5038133;28;20029;-89
2021/10/20 05:19:44;;;;;;;90.75;46.63;;;;;;;;;;5035806;28;21402;-89
2021/10/20 05:22:10;;;;;;;79.55;43.05;;;;;;;;;;5035960;28;20021;-89
2021/10/20 05:24:35;;;;;;;63.55;40.85;;;;;;;;;;5051584;28;20013;-89
2021/10/20 05:27:00;;;;;;;84.35;47.63;;;;;;;;;;5054621;28;20021;-89
2021/10/20 05:29:32;;;;;;;84.10;45.55;;;;;;;;;;5054315;28;20017;-89
2021/10/20 05:31:57;;;;;;;;;;;;;;;;;;5052509;28;20025;-89
2021/10/20 05:34:22;;;;;;;82.60;43.53;;;;;;;;;;5054739;28;19912;-89
2021/10/20 05:36:47;;;;;;;88.50;44.07;;;;;;;;;;5053052;28;20021;-89
2021/10/20 05:39:12;;;;;;;63.72;39.03;;;;;;;;;;5036912;28;20295;-89
2021/10/20 05:41:39;;;;;;;80.03;42.30;;;;;;;;;;5055048;28;20489;-88
2021/10/20 05:44:04;;;;;;;72.05;40.00;;;;;;;;;;5036508;28;20017;-89
2021/10/20 05:46:30;;;;;;;54.60;35.28;;;;;;;;;;5034643;28;20078;-89
2021/10/20 05:48:55;;;;;;;69.80;36.65;;;;;;;;;;5052394;28;20059;-88
2021/10/20 05:51:20;;;;;;;60.80;35.93;;;;;;;;;;5053223;28;20017;-88
2021/10/20 05:53:45;;;;;;;87.13;43.00;;;;;;;;;;5041611;28;21046;-88
2021/10/20 05:56:10;;;;;;;66.97;37.33;;;;;;;;;;5035523;28;20299;-88
2021/10/20 05:58:36;;;;;;;76.33;39.60;;;;;;;;;;5034953;28;20057;-88
2021/10/20 06:01:01;;;;;;;74.75;40.47;;;;;;;;;;5050595;28;20469;-88
2021/10/20 06:03:26;;;;;;;59.83;34.72;;;;;;;;;;5042826;28;20461;-88
2021/10/20 06:05:51;;;;;;;52.37;31.73;;;;;;;;;;5053411;28;20017;-88
2021/10/20 06:08:17;;;;;;;53.60;32.37;;;;;;;;;;5054415;28;20350;-88
2021/10/20 06:10:42;;;;;;;55.15;32.28;;;;;;;;;;5050636;28;20413;-88
2021/10/20 06:13:07;;;;;;;48.93;30.87;;;;;;;;;;5053168;28;20028;-88
2021/10/20 06:15:32;;;;;;;58.13;30.33;;;;;;;;;;5054157;28;20345;-88
2021/10/20 06:17:57;;;;;;;43.72;29.35;;;;;;;;;;5052710;28;20374;-88
2021/10/20 06:20:23;;;;;;;43.63;28.10;;;;;;;;;;5052471;28;20064;-88
2021/10/20 06:22:48;;;;;;;51.27;29.97;;;;;;;;;;5053202;28;20025;-88
2021/10/20 06:25:13;;;;;;;47.33;29.60;;;;;;;;;;5054407;28;20647;-88
2021/10/20 06:27:39;;;;;;;45.50;29.80;;;;;;;;;;5053227;28;20291;-88
2021/10/20 06:30:05;;;;;;;45.25;29.17;;;;;;;;;;5052627;28;20021;-88
2021/10/20 06:32:30;;;;;;;42.40;28.95;;;;;;;;;;5052697;28;20048;-88
2021/10/20 06:34:55;;;;;;;52.25;31.38;;;;;;;;;;5052272;28;20025;-88
2021/10/20 06:37:20;;;;;;;56.13;31.33;;;;;;;;;;5036447;28;20025;-88
2021/10/20 06:39:46;;;;;;;56.85;33.58;;;;;;;;;;5036290;28;20504;-88
2021/10/20 06:42:11;;;;;;;55.10;31.08;;;;;;;;;;5035325;28;20025;-87
2021/10/20 06:44:36;;;;;;;49.00;30.55;;;;;;;;;;5052075;28;20032;-88
2021/10/20 06:47:01;;;;;;;50.67;30.30;;;;;;;;;;5036448;28;20088;-88
2021/10/20 06:49:27;;;;;;;46.70;31.60;;;;;;;;;;5053596;28;20021;-88
2021/10/20 06:51:52;;;;;;;48.37;30.43;;;;;;;;;;5053929;28;20047;-88
2021/10/20 06:54:18;;;;;;;44.30;28.80;;;;;;;;;;5053653;28;20259;-87
2021/10/20 06:56:50;;;;;;;42.28;27.42;;;;;;;;;;5053211;28;20072;-88
2021/10/20 06:59:16;;;;;;;48.53;28.90;;;;;;;;;;5035629;28;20036;-87
2021/10/20 07:01:42;;;;;;;47.25;26.77;;;;;;;;;;5049701;28;20029;-88
2021/10/20 07:04:08;;;;;;;46.47;27.67;;;;;;;;;;5051081;28;20025;-87
2021/10/20 07:06:33;;;;;;;41.30;28.60;;;;;;;;;;5052110;28;20019;-87
2021/10/20 07:09:01;;;;;;;46.33;27.33;;;;;;;;;;5051336;28;20020;-88
2021/10/20 07:11:26;;;;;;;44.75;28.17;;;;;;;;;;5051160;28;20017;-88
2021/10/20 07:13:51;;;;;;;45.50;27.33;;;;;;;;;;5042702;28;20386;-87
2021/10/20 07:16:16;;;;;;;43.60;28.65;;;;;;;;;;5034008;28;20484;-87
2021/10/20 07:18:42;;;;;;;53.47;29.38;;;;;;;;;;5032427;28;20040;-87
2021/10/20 07:21:07;;;;;;;44.28;27.85;;;;;;;;;;5050985;28;20078;-87
2021/10/20 07:23:32;;;;;;;48.35;28.02;;;;;;;;;;5032377;28;20115;-87
2021/10/20 07:25:58;;;;;;;39.25;27.10;;;;;;;;;;5049846;28;20021;-87
2021/10/20 07:28:23;;;;;;;38.92;25.55;;;;;;;;;;5050200;28;20389;-87
2021/10/20 07:30:48;;;;;;;44.78;26.40;;;;;;;;;;5032443;28;20056;-87
2021/10/20 07:33:13;;;;;;;44.65;27.23;;;;;;;;;;5050483;28;20020;-86
2021/10/20 07:35:38;;;;;;;43.42;27.42;;;;;;;;;;5032402;28;20572;-87
2021/10/20 07:38:04;;;;;;;43.83;27.63;;;;;;;;;;5050488;28;20032;-87
2021/10/20 07:40:30;;;;;;;92.38;35.20;;;;;;;;;;5032361;28;20620;-87
2021/10/20 07:42:55;;;;;;;71.72;40.08;;;;;;;;;;5032220;28;20056;-87
2021/10/20 07:45:21;;;;;;;65.13;37.88;;;;;;;;;;5032749;28;20025;-88
2021/10/20 07:47:48;;;;;;;78.35;42.83;;;;;;;;;;5032866;28;20112;-88
2021/10/20 07:50:15;;;;;;;66.50;37.97;;;;;;;;;;5032963;28;20449;-87
2021/10/20 07:52:43;;;;;;;76.30;38.90;;;;;;;;;;5031454;28;20100;-87
2021/10/20 07:55:09;;;;;;;58.10;34.63;;;;;;;;;;5032349;28;20082;-88
2021/10/20 07:57:35;;;;;;;77.57;39.08;;;;;;;;;;5029213;28;20394;-87
2021/10/20 08:00:11;;;;;;;80.95;39.70;;;;;;;;;;5029275;28;20188;-87
2021/10/20 08:02:40;;;;;;;94.45;44.35;;;;;;;;;;5025743;28;20302;-88
2021/10/20 08:05:21;;;;;;;80.68;40.75;;;;;;;;;;5030349;28;20633;-87
2021/10/20 08:07:48;;;;;;;75.13;41.30;;;;;;;;;;5032669;28;20021;-88
2021/10/20 08:10:17;;;;;;;77.55;42.47;;;;;;;;;;5032642;28;20021;-88
2021/10/20 08:12:43;;;;;;;58.30;36.05;;;;;;;;;;5032491;28;20017;-88
2021/10/20 08:15:09;;;;;;;73.47;38.88;;;;;;;;;;5032710;28;20067;-87
2021/10/20 08:17:35;;;;;;;74.15;39.47;;;;;;;;;;5032473;28;20021;-87
2021/10/20 08:20:00;;;;;;;96.55;45.83;;;;;;;;;;5035027;28;20029;-87
2021/10/20 08:22:25;;;;;;;72.22;39.35;;;;;;;;;;5033843;28;20021;-87
2021/10/20 08:24:51;;;;;;;108.77;49.23;;;;;;;;;;5031967;28;20025;-87
2021/10/20 08:27:17;;;;;;;67.18;38.50;;;;;;;;;;5031314;28;20706;-88
2021/10/20 08:32:13;;;;;;;96.10;45.05;;;;;;;;;;5097014;22;20728;-88
2021/10/20 08:34:40;;;;;;;92.88;45.92;;;;;;;;;;5068015;28;20037;-88
2021/10/20 08:37:06;;;;;;;91.57;45.35;;;;;;;;;;5085795;28;20020;-88
2021/10/20 08:39:36;;;;;;;96.97;46.92;;;;;;;;;;5089605;28;20035;-89
2021/10/20 08:42:01;;;;;;;81.70;40.38;;;;;;;;;;5071488;23;20081;-89
2021/10/20 08:46:56;;;;;;;67.90;38.90;;;;;;;;;;5123135;22;20066;-90
2021/10/20 08:49:23;;;;;;;77.07;40.75;;;;;;;;;;5077239;28;20231;-89
2021/10/20 08:51:48;;;;;;;81.53;42.08;;;;;;;;;;5114245;28;20058;-89
2021/10/20 08:54:13;;;;;;;69.47;39.63;;;;;;;;;;5095885;28;20016;-89
2021/10/20 08:56:43;;;;;;;61.05;35.75;;;;;;;;;;5111258;28;20653;-90
2021/10/20 08:59:09;;;;;;;74.10;37.67;;;;;;;;;;5092486;28;20065;-89
2021/10/20 09:01:34;;;;;;;80.45;39.03;;;;;;;;;;5092274;28;20016;-89
2021/10/20 09:04:02;;;;;;;89.03;43.88;;;;;;;;;;5094207;28;20028;-89
2021/10/20 09:06:29;;;;;;;79.70;42.35;;;;;;;;;;5095996;28;20016;-89
2021/10/20 09:08:54;;;;;;;85.22;42.53;;;;;;;;;;5094834;28;20020;-89
2021/10/20 09:11:32;;;;;;;75.00;40.20;;;;;;;;;;5092262;28;20050;-89
2021/10/20 09:14:04;;;;;;;92.80;44.50;;;;;;;;;;5094447;28;20020;-89
2021/10/20 09:16:33;;;;;;;81.72;42.55;;;;;;;;;;5092200;28;20107;-90
2021/10/20 09:19:09;;;;;;;77.65;40.60;;;;;;;;;;5075026;28;20031;-89
2021/10/20 09:21:45;;;;;;;85.85;43.00;;;;;;;;;;5092674;28;20024;-90
2021/10/20 09:24:10;;;;;;;84.57;43.42;;;;;;;;;;5072123;28;20023;-89
2021/10/20 09:26:36;;;;;;;84.20;44.33;;;;;;;;;;5073715;28;20021;-90
2021/10/20 09:29:01;;;;;;;87.40;44.78;;;;;;;;;;5095023;28;20041;-89
2021/10/20 09:31:26;;;;;;;72.78;39.50;;;;;;;;;;5079669;28;20103;-89
2021/10/20 09:33:52;;;;;;;79.15;43.15;;;;;;;;;;5075644;28;20047;-89
2021/10/20 09:36:20;;;;;;;62.08;38.28;;;;;;;;;;5076496;28;20488;-89
2021/10/20 09:38:48;;;;;;;68.55;39.90;;;;;;;;;;5077225;28;20039;-89
2021/10/20 09:41:13;;;;;;;86.88;44.45;;;;;;;;;;5077337;28;20024;-89
2021/10/20 09:43:40;;;;;;;67.45;40.00;;;;;;;;;;5094055;28;20383;-90
2021/10/20 09:46:05;;;;;;;92.95;47.33;;;;;;;;;;5076185;28;20052;-89
2021/10/20 09:48:30;;;;;;;76.30;40.42;;;;;;;;;;5094950;28;20078;-89
2021/10/20 09:50:57;;;;;;;80.70;44.25;;;;;;;;;;5094093;28;20072;-89
2021/10/20 09:53:24;;;;;;;83.03;42.90;;;;;;;;;;5093879;28;20127;-89
2021/10/20 09:55:49;;;;;;;67.35;41.00;;;;;;;;;;5092226;28;20506;-89
2021/10/20 09:58:15;;;;;;;71.68;41.97;;;;;;;;;;5093079;28;20075;-89
2021/10/20 10:00:41;;;;;;;74.05;39.25;;;;;;;;;;5094170;28;20103;-89
2021/10/20 10:03:07;;;;;;;75.00;41.88;;;;;;;;;;5094431;28;20020;-87
2021/10/20 10:05:33;;;;;;;72.72;39.80;;;;;;;;;;5095144;28;20028;-87
2021/10/20 10:07:58;;;;;;;88.88;44.25;;;;;;;;;;5093106;28;20031;-87
2021/10/20 10:10:23;;;;;;;69.18;40.20;;;;;;;;;;5091741;28;20016;-87
2021/10/20 10:12:52;;;;;;;83.28;43.88;;;;;;;;;;5094842;28;20054;-87
2021/10/20 10:15:18;;;;;;;66.35;37.58;;;;;;;;;;5076403;28;20069;-87
2021/10/20 10:17:44;;;;;;;70.65;40.50;;;;;;;;;;5116897;22;20055;-87
2021/10/20 10:20:15;;;;;;;70.55;37.67;;;;;;;;;;5104756;22;20454;-89
2021/10/20 10:22:51;;;;;;;65.78;36.78;;;;;;;;;;5077406;28;20016;-90
2021/10/20 10:25:20;;;;;;;85.63;43.65;;;;;;;;;;5078156;28;20097;-90
2021/10/20 10:28:04;;;;;;;79.70;41.70;;;;;;;;;;5077884;28;20020;-89
2021/10/20 10:30:44;;;;;;;67.10;38.83;;;;;;;;;;5074457;28;20024;-89
2021/10/20 10:33:14;;;;;;;76.72;38.95;;;;;;;;;;5093354;28;20032;-89
2021/10/20 10:35:41;;;;;;;77.28;42.08;;;;;;;;;;5067844;28;20040;-89
2021/10/20 10:38:07;;;;;;;78.18;38.53;;;;;;;;;;5076298;28;20024;-89
2021/10/20 10:40:32;;;;;;;76.25;35.20;;;;;;;;;;5076234;28;20111;-90
2021/10/20 10:43:09;;;;;;;81.80;36.28;;;;;;;;;;5093005;28;20024;-89
2021/10/20 10:45:35;;;;;;;97.65;38.25;;;;;;;;;;5075862;28;20020;-90
2021/10/20 10:48:02;;;;;;;86.10;38.00;;;;;;;;;;5076736;28;20779;-90
2021/10/20 10:50:42;;;;;;;60.25;31.95;;;;;;;;;;5076454;28;20796;-90
2021/10/20 10:53:08;;;;;;;68.87;31.77;;;;;;;;;;5075223;28;20383;-90
2021/10/20 10:55:34;;;;;;;83.60;34.25;;;;;;;;;;5063653;28;20016;-89
2021/10/20 10:58:00;;;;;;;64.25;29.15;;;;;;;;;;5055854;28;20031;-89
2021/10/20 11:00:32;;;;;;;79.70;34.65;;;;;;;;;;5055044;28;20504;-89
2021/10/20 11:03:13;;;;;;;71.47;30.48;;;;;;;;;;5073696;28;20108;-89
2021/10/20 11:05:38;;;;;;;49.30;23.48;;;;;;;;;;5087473;28;20020;-90
2021/10/20 11:08:11;;;;;;;57.88;26.63;;;;;;;;;;5075864;28;20031;-89
2021/10/20 11:10:40;;;;;;;72.10;28.88;;;;;;;;;;5076489;28;20024;-90
2021/10/20 11:13:06;;;;;;;62.58;25.20;;;;;;;;;;5069924;28;20032;-90
2021/10/20 11:15:32;;;;;;;65.30;28.95;;;;;;;;;;5067415;28;20029;-89
2021/10/20 11:18:00;;;;;;;92.72;33.05;;;;;;;;;;5054418;28;20024;-89
2021/10/20 11:20:30;;;;;;;73.57;29.90;;;;;;;;;;5060110;28;20056;-90
2021/10/20 11:22:56;;;;;;;102.47;32.63;;;;;;;;;;5068243;28;20029;-89
2021/10/20 11:25:22;;;;;;;83.45;29.83;;;;;;;;;;5051340;28;20040;-89
2021/10/20 11:27:48;;;;;;;81.43;29.42;;;;;;;;;;5053114;28;20028;-89
2021/10/20 11:30:15;;;;;;;91.35;31.95;;;;;;;;;;5050434;28;20075;-89
2021/10/20 11:32:41;;;;;;;69.18;27.27;;;;;;;;;;5052384;28;20116;-87
2021/10/20 11:35:12;;;;;;;93.72;33.22;;;;;;;;;;5051479;28;20056;-88
2021/10/20 11:37:37;;;;;;;92.88;33.50;;;;;;;;;;5052526;28;20112;-88
2021/10/20 11:40:03;;;;;;;99.07;33.83;;;;;;;;;;5051391;28;20649;-87
2021/10/20 11:42:29;;;;;;;83.88;29.70;;;;;;;;;;5050696;28;20259;-87
2021/10/20 11:44:58;;;;;;;76.35;29.45;;;;;;;;;;5053529;28;20373;-87
2021/10/20 11:47:24;;;;;;;76.82;26.92;;;;;;;;;;5058940;28;20017;-88
2021/10/20 11:49:51;;;;;;;84.65;29.90;;;;;;;;;;5052088;28;20495;-87
2021/10/20 11:52:17;;;;;;;88.07;31.00;;;;;;;;;;5051072;28;20029;-88
2021/10/20 11:54:42;;;;;;;108.05;38.45;;;;;;;;;;5050229;28;20098;-88
2021/10/20 11:57:09;;;;;;;110.53;40.53;;;;;;;;;;5051748;28;20064;-88
2021/10/20 11:59:35;;;;;;;65.85;27.55;;;;;;;;;;5052331;28;20036;-88
2021/10/20 12:02:01;;;;;;;91.40;35.17;;;;;;;;;;5051317;28;20100;-87
2021/10/20 12:04:26;;;;;;;61.65;26.50;;;;;;;;;;5054509;28;20523;-88
2021/10/20 12:06:56;;;;;;;62.72;27.38;;;;;;;;;;5052049;28;20025;-87
2021/10/20 12:09:23;;;;;;;70.75;28.83;;;;;;;;;;5053449;28;20071;-87
2021/10/20 12:11:49;;;;;;;63.90;27.55;;;;;;;;;;5054232;28;20020;-87
2021/10/20 12:14:15;;;;;;;72.30;30.60;;;;;;;;;;5060290;28;20017;-87
2021/10/20 12:16:42;;;;;;;67.97;28.13;;;;;;;;;;5074106;28;20731;-88
2021/10/20 12:19:10;;;;;;;75.60;32.25;;;;;;;;;;5077707;28;20094;-87
2021/10/20 12:21:37;;;;;;;74.95;29.60;;;;;;;;;;5087304;28;20028;-89
2021/10/20 12:24:02;;;;;;;66.35;30.85;;;;;;;;;;5080341;28;20020;-88
2021/10/20 12:26:29;;;;;;;97.40;38.47;;;;;;;;;;5077542;28;20012;-89
2021/10/20 12:28:55;;;;;;;65.00;31.40;;;;;;;;;;5095766;28;20099;-88
2021/10/20 12:31:21;;;;;;;59.58;31.33;;;;;;;;;;5070158;28;20836;-89
2021/10/20 12:33:47;;;;;;;69.78;32.97;;;;;;;;;;5059235;28;20027;-88
2021/10/20 12:36:14;;;;;;;90.35;41.70;;;;;;;;;;5065242;28;20032;-88
2021/10/20 12:38:40;;;;;;;72.20;36.55;;;;;;;;;;5057836;28;20111;-89
2021/10/20 12:41:07;;;;;;;93.30;40.47;;;;;;;;;;5063993;28;20647;-88
2021/10/20 12:43:32;;;;;;;53.20;34.15;;;;;;;;;;5097095;28;20021;-88
2021/10/20 12:45:59;;;;;;;75.32;43.10;;;;;;;;;;5078469;28;20065;-89
2021/10/20 12:48:27;;;;;;;72.45;41.72;;;;;;;;;;5078463;28;20020;-88
2021/10/20 12:50:53;;;;;;;98.05;49.50;;;;;;;;;;5077391;28;20046;-88
2021/10/20 12:53:18;;;;;;;80.57;45.05;;;;;;;;;;5078547;28;20020;-88
2021/10/20 12:55:46;;;;;;;77.95;44.63;;;;;;;;;;5084022;28;20107;-88
2021/10/20 12:58:16;;;;;;;70.63;41.15;;;;;;;;;;5078105;28;20051;-88
2021/10/20 13:00:43;;;;;;;80.47;46.40;;;;;;;;;;5096615;28;20028;-88
2021/10/20 13:03:09;;;;;;;85.35;45.65;;;;;;;;;;5077668;28;20468;-89
2021/10/20 13:05:35;;;;;;;85.35;44.92;;;;;;;;;;5066610;28;20094;-88
2021/10/20 13:08:00;;;;;;;71.25;40.65;;;;;;;;;;5058218;28;20078;-89
2021/10/20 13:10:25;;;;;;;86.75;43.05;;;;;;;;;;5058613;28;20017;-89
2021/10/20 13:12:57;;;;;;;65.03;38.50;;;;;;;;;;5058269;28;20082;-89
2021/10/20 13:15:22;;;;;;;;;;;;;;;;;;5058860;28;20016;-89
2021/10/20 13:17:47;;;;;;;51.57;32.93;;;;;;;;;;5076121;28;19915;-89
2021/10/20 13:20:14;;;;;;;52.25;32.28;;;;;;;;;;5055869;28;20055;-89
2021/10/20 13:22:40;;;;;;;48.08;32.58;;;;;;;;;;5056595;28;20024;-88
2021/10/20 13:25:07;;;;;;;61.13;36.95;;;;;;;;;;5055400;28;20055;-88
2021/10/20 13:27:33;;;;;;;52.70;33.97;;;;;;;;;;5057351;28;20024;-88
2021/10/20 13:29:59;;;;;;;49.13;30.88;;;;;;;;;;5059027;28;20017;-88
2021/10/20 13:32:24;;;;;;;43.95;30.17;;;;;;;;;;5057252;28;20137;-88
2021/10/20 13:34:49;;;;;;;41.80;28.33;;;;;;;;;;5057337;28;20025;-88
2021/10/20 13:37:16;;;;;;;33.47;23.95;;;;;;;;;;5073766;28;20337;-89
2021/10/20 13:39:41;;;;;;;31.30;24.67;;;;;;;;;;5038985;28;20040;-88
2021/10/20 13:42:07;;;;;;;32.95;23.48;;;;;;;;;;5057295;28;20074;-88
2021/10/20 13:44:32;;;;;;;37.70;25.80;;;;;;;;;;5087750;28;20016;-88
2021/10/20 13:46:59;;;;;;;37.20;24.90;;;;;;;;;;5077678;28;20020;-88
2021/10/20 13:49:24;;;;;;;41.72;27.40;;;;;;;;;;5077489;28;20016;-88
2021/10/20 13:51:52;;;;;;;27.77;20.70;;;;;;;;;;5080456;28;20035;-88
2021/10/20 13:54:18;;;;;;;33.38;19.48;;;;;;;;;;5075742;28;20082;-88
2021/10/20 13:56:43;;;;;;;31.95;18.45;;;;;;;;;;5077211;28;20020;-89
2021/10/20 13:59:09;;;;;;;31.40;19.70;;;;;;;;;;5094083;28;20040;-88
2021/10/20 14:01:34;;;;;;;34.38;20.90;;;;;;;;;;5074430;28;20270;-88
2021/10/20 14:03:59;;;;;;;32.88;19.48;;;;;;;;;;5094669;28;20020;-88
2021/10/20 14:06:25;;;;;;;31.30;18.98;;;;;;;;;;5059414;28;20100;-88
2021/10/20 14:08:50;;;;;;;26.42;14.95;;;;;;;;;;5059263;28;20008;-88
2021/10/20 14:11:15;;;;;;;25.50;14.65;;;;;;;;;;5055703;28;20021;-88
2021/10/20 14:13:41;;;;;;;20.38;12.63;;;;;;;;;;5054946;28;20040;-88